createdAt,value
2018-06-05T00:00:35.043Z,10.77
2018-06-05T00:03:04.406Z,10.47
2018-06-05T00:05:33.733Z,9.90
2018-06-05T00:08:03.093Z,9.93
2018-06-05T00:10:32.599Z,10.47
2018-06-05T00:13:01.934Z,9.60
2018-06-05T00:15:31.246Z,10.70
2018-06-05T00:18:00.565Z,9.80
2018-06-05T00:20:29.887Z,10.23
2018-06-05T00:22:59.251Z,10.27
2018-06-05T00:25:28.588Z,10.83
2018-06-05T00:27:57.944Z,10.00
2018-06-05T00:30:27.283Z,10.57
2018-06-05T00:32:56.610Z,10.30
2018-06-05T00:35:25.975Z,9.40
2018-06-05T00:37:55.303Z,11.20
2018-06-05T00:40:24.671Z,11.60
2018-06-05T00:42:53.982Z,9.63
2018-06-05T00:45:23.332Z,11.17
2018-06-05T00:47:52.638Z,10.37
2018-06-05T00:50:22.015Z,10.07
2018-06-05T00:52:51.354Z,10.27
2018-06-05T00:55:20.691Z,9.67
2018-06-05T00:57:50.017Z,10.10
2018-06-05T01:00:19.441Z,10.87
2018-06-05T01:02:48.760Z,9.83
2018-06-05T01:05:18.137Z,10.10
2018-06-05T01:07:47.478Z,10.40
2018-06-05T01:10:16.450Z,10.43
2018-06-05T01:12:45.706Z,10.07
2018-06-05T01:15:15.036Z,10.53
2018-06-05T01:17:44.041Z,11.27
2018-06-05T01:20:13.267Z,11.50
2018-06-05T01:22:42.653Z,11.20
2018-06-05T01:25:11.964Z,10.67
2018-06-05T01:27:41.350Z,11.00
2018-06-05T01:30:10.635Z,10.93
2018-06-05T01:32:40.031Z,10.80
2018-06-05T01:35:09.731Z,11.27
2018-06-05T01:37:39.079Z,10.60
2018-06-05T01:40:08.399Z,12.00
2018-06-05T01:42:37.786Z,11.37
2018-06-05T01:45:07.078Z,11.40
2018-06-05T01:47:36.460Z,11.10
2018-06-05T01:50:05.761Z,11.27
2018-06-05T01:52:35.139Z,12.50
2018-06-05T01:55:04.559Z,10.83
2018-06-05T01:57:33.943Z,11.80
2018-06-05T02:00:03.287Z,12.40
2018-06-05T02:02:32.653Z,11.70
2018-06-05T02:05:02.005Z,12.00
2018-06-05T02:07:31.366Z,11.50
2018-06-05T02:10:00.690Z,11.63
2018-06-05T02:12:30.012Z,11.93
2018-06-05T02:14:59.363Z,11.03
2018-06-05T02:17:28.713Z,11.97
2018-06-05T02:19:58.073Z,13.87
2018-06-05T02:22:27.383Z,11.97
2018-06-05T02:24:56.736Z,11.97
2018-06-05T02:27:26.075Z,12.73
2018-06-05T02:29:55.447Z,11.80
2018-06-05T02:32:24.767Z,11.77
2018-06-05T02:34:53.711Z,11.90
2018-06-05T02:37:22.920Z,12.60
2018-06-05T02:39:52.268Z,11.73
2018-06-05T02:42:21.604Z,12.43
2018-06-05T02:44:50.969Z,11.50
2018-06-05T02:47:20.290Z,11.00
2018-06-05T02:49:49.636Z,11.90
2018-06-05T02:52:18.992Z,11.87
2018-06-05T02:54:48.299Z,12.27
2018-06-05T02:57:17.636Z,12.87
2018-06-05T02:59:46.994Z,13.53
2018-06-05T03:02:16.384Z,12.10
2018-06-05T03:04:45.720Z,12.50
2018-06-05T03:07:15.085Z,12.40
2018-06-05T03:09:44.442Z,13.70
2018-06-05T03:12:13.861Z,12.37
2018-06-05T03:14:43.223Z,13.07
2018-06-05T03:17:12.619Z,13.57
2018-06-05T03:19:41.980Z,14.17
2018-06-05T03:22:11.371Z,13.20
2018-06-05T03:24:40.714Z,13.17
2018-06-05T03:27:10.069Z,13.50
2018-06-05T03:29:39.426Z,13.60
2018-06-05T03:32:08.811Z,12.33
2018-06-05T03:34:38.188Z,15.77
2018-06-05T03:37:07.536Z,26.07
2018-06-05T03:39:36.930Z,19.83
2018-06-05T03:42:05.901Z,19.53
2018-06-05T03:44:35.188Z,14.37
2018-06-05T03:47:04.556Z,14.90
2018-06-05T03:49:39.237Z,14.13
2018-06-05T03:52:08.461Z,15.13
2018-06-05T03:54:37.735Z,16.80
2018-06-05T03:57:07.237Z,15.30
2018-06-05T03:59:36.574Z,15.97
2018-06-05T04:02:05.951Z,14.00
2018-06-05T04:04:35.270Z,13.00
2018-06-05T04:07:04.621Z,14.40
2018-06-05T04:09:33.966Z,14.53
2018-06-05T04:12:03.312Z,15.83
2018-06-05T04:14:32.628Z,14.80
2018-06-05T04:17:01.994Z,13.57
2018-06-05T04:19:31.320Z,14.60
2018-06-05T04:22:00.672Z,13.67
2018-06-05T04:24:30.007Z,14.30
2018-06-05T04:26:59.364Z,13.60
2018-06-05T04:29:29.757Z,14.10
2018-06-05T04:31:59.075Z,14.87
2018-06-05T04:34:28.405Z,16.17
2018-06-05T04:36:57.777Z,16.00
2018-06-05T04:39:27.131Z,15.00
2018-06-05T04:41:56.483Z,15.23
2018-06-05T04:44:25.770Z,16.03
2018-06-05T04:46:55.107Z,16.47
2018-06-05T04:49:24.403Z,14.87
2018-06-05T04:51:54.864Z,14.50
2018-06-05T04:54:24.189Z,15.63
2018-06-05T04:56:53.584Z,14.03
2018-06-05T04:59:22.921Z,14.53
2018-06-05T05:01:52.255Z,15.87
2018-06-05T05:04:21.559Z,17.17
2018-06-05T05:06:50.888Z,17.07
2018-06-05T05:09:20.489Z,15.63
2018-06-05T05:11:49.763Z,17.53
2018-06-05T05:14:19.068Z,17.87
2018-06-05T05:16:48.480Z,16.33
2018-06-05T05:19:18.191Z,17.80
2018-06-05T05:21:47.475Z,16.67
2018-06-05T05:24:17.311Z,18.10
2018-06-05T05:26:46.617Z,15.30
2018-06-05T05:29:15.966Z,16.43
2018-06-05T05:31:45.289Z,15.30
2018-06-05T05:34:14.624Z,15.30
2018-06-05T05:36:44.248Z,16.03
2018-06-05T05:39:13.701Z,14.53
2018-06-05T05:41:43.441Z,15.87
2018-06-05T05:44:12.767Z,17.10
2018-06-05T05:46:42.117Z,16.03
2018-06-05T05:49:11.507Z,16.83
2018-06-05T05:51:40.799Z,18.50
2018-06-05T05:54:10.138Z,18.33
2018-06-05T05:56:39.489Z,16.83
2018-06-05T05:59:08.884Z,15.87
2018-06-05T06:01:39.344Z,17.43
2018-06-05T06:04:08.721Z,17.50
2018-06-05T06:06:38.061Z,17.43
2018-06-05T06:09:08.175Z,13.87
2018-06-05T06:11:37.509Z,17.10
2018-06-05T06:14:06.859Z,16.40
2018-06-05T06:16:36.228Z,17.93
2018-06-05T06:19:05.562Z,16.40
2018-06-05T06:21:34.902Z,16.60
2018-06-05T06:24:04.238Z,15.57
2018-06-05T06:26:33.605Z,17.30
2018-06-05T06:29:02.909Z,16.00
2018-06-05T06:31:32.325Z,17.37
2018-06-05T06:34:01.625Z,16.57
2018-06-05T06:36:31.051Z,15.70
2018-06-05T06:39:00.363Z,15.40
2018-06-05T06:41:29.768Z,17.20
2018-06-05T06:43:59.113Z,15.87
2018-06-05T06:46:28.486Z,17.07
2018-06-05T06:48:57.866Z,16.13
2018-06-05T06:51:27.195Z,13.40
2018-06-05T06:53:56.742Z,16.17
2018-06-05T06:56:26.090Z,17.00
2018-06-05T06:58:55.447Z,15.13
2018-06-05T07:01:24.814Z,16.80
2018-06-05T07:03:54.143Z,14.70
2018-06-05T07:06:23.535Z,16.30
2018-06-05T07:08:52.830Z,14.87
2018-06-05T07:11:22.191Z,15.13
2018-06-05T07:13:51.529Z,16.57
2018-06-05T07:16:20.871Z,16.70
2018-06-05T07:18:50.183Z,16.60
2018-06-05T07:21:19.566Z,15.97
2018-06-05T07:23:48.885Z,15.40
2018-06-05T07:26:18.738Z,14.00
2018-06-05T07:28:48.064Z,15.93
2018-06-05T07:31:17.920Z,17.33
2018-06-05T07:33:47.286Z,15.53
2018-06-05T07:36:16.947Z,14.67
2018-06-05T07:38:46.318Z,14.87
2018-06-05T07:41:15.659Z,16.03
2018-06-05T07:43:45.050Z,14.60
2018-06-05T07:46:14.405Z,15.70
2018-06-05T07:48:43.769Z,15.83
2018-06-05T07:51:13.076Z,14.70
2018-06-05T07:53:42.461Z,14.90
2018-06-05T07:56:11.767Z,16.03
2018-06-05T07:58:41.127Z,14.00
2018-06-05T08:01:10.453Z,14.90
2018-06-05T08:03:39.798Z,13.90
2018-06-05T08:06:09.144Z,13.30
2018-06-05T08:08:38.497Z,14.70
2018-06-05T08:11:07.828Z,15.13
2018-06-05T08:13:37.167Z,14.03
2018-06-05T08:16:06.114Z,13.90
2018-06-05T08:18:35.401Z,14.30
2018-06-05T08:21:04.825Z,11.17
2018-06-05T08:23:34.200Z,13.50
2018-06-05T08:26:03.552Z,14.03
2018-06-05T08:28:32.867Z,12.73
2018-06-05T08:31:02.237Z,13.00
2018-06-05T08:33:31.533Z,12.30
2018-06-05T08:36:01.788Z,13.53
2018-06-05T08:38:31.120Z,11.30
2018-06-05T08:41:00.494Z,13.17
2018-06-05T08:43:29.780Z,12.60
2018-06-05T08:45:59.236Z,14.30
2018-06-05T08:48:28.601Z,13.30
2018-06-05T08:50:57.968Z,12.23
2018-06-05T08:53:27.275Z,11.40
2018-06-05T08:55:56.275Z,12.03
2018-06-05T08:58:25.511Z,13.00
2018-06-05T09:00:54.892Z,12.80
2018-06-05T09:03:23.831Z,14.13
2018-06-05T09:05:53.067Z,12.27
2018-06-05T09:08:22.461Z,12.00
2018-06-05T09:10:51.865Z,12.20
2018-06-05T09:13:21.184Z,11.67
2018-06-05T09:15:50.588Z,12.37
2018-06-05T09:18:19.925Z,11.70
2018-06-05T09:20:49.291Z,13.77
2018-06-05T09:23:18.607Z,13.53
2018-06-05T09:25:47.932Z,12.23
2018-06-05T09:28:17.259Z,11.57
2018-06-05T09:30:46.597Z,12.40
2018-06-05T09:33:15.979Z,10.43
2018-06-05T09:35:45.300Z,12.97
2018-06-05T09:38:14.620Z,12.03
2018-06-05T09:40:43.944Z,13.23
2018-06-05T09:43:13.288Z,11.50
2018-06-05T09:45:42.615Z,13.10
2018-06-05T09:48:11.947Z,10.67
2018-06-05T09:50:45.380Z,9.80
2018-06-05T09:53:14.751Z,9.93
2018-06-05T09:55:44.076Z,10.57
2018-06-05T09:58:13.454Z,10.60
2018-06-05T10:00:48.044Z,11.93
2018-06-05T10:03:17.448Z,10.20
2018-06-05T10:05:47.273Z,11.27
2018-06-05T10:08:16.696Z,9.57
2018-06-05T10:10:46.073Z,10.13
2018-06-05T10:13:15.476Z,8.90
2018-06-05T10:15:44.880Z,10.10
2018-06-05T10:18:14.251Z,11.20
2018-06-05T10:20:43.586Z,9.50
2018-06-05T10:23:13.017Z,10.70
2018-06-05T10:25:42.375Z,11.00
2018-06-05T10:28:12.669Z,10.97
2018-06-05T10:30:42.439Z,8.90
2018-06-05T10:33:12.300Z,8.63
2018-06-05T10:35:41.659Z,9.13
2018-06-05T10:38:11.000Z,8.90
2018-06-05T10:40:40.426Z,8.27
2018-06-05T10:43:09.754Z,7.47
2018-06-05T10:45:39.144Z,7.80
2018-06-05T10:48:08.544Z,8.93
2018-06-05T10:50:39.263Z,8.97
2018-06-05T10:53:08.466Z,7.90
2018-06-05T10:55:37.824Z,8.50
2018-06-05T10:58:07.158Z,8.83
2018-06-05T11:00:36.539Z,9.07
2018-06-05T11:03:05.854Z,7.87
2018-06-05T11:05:35.217Z,8.73
2018-06-05T11:08:04.531Z,8.80
2018-06-05T11:10:33.902Z,9.40
2018-06-05T11:13:03.193Z,8.23
2018-06-05T11:15:32.544Z,9.87
2018-06-05T11:18:01.840Z,9.30
2018-06-05T11:20:31.205Z,10.10
2018-06-05T11:23:00.520Z,9.10
2018-06-05T11:25:29.977Z,9.53
2018-06-05T11:27:59.305Z,9.63
2018-06-05T11:30:28.642Z,8.10
2018-06-05T11:32:57.947Z,10.00
2018-06-05T11:35:27.522Z,9.07
2018-06-05T11:37:56.824Z,10.50
2018-06-05T11:40:26.167Z,10.97
2018-06-05T11:42:55.461Z,10.27
2018-06-05T11:45:24.862Z,10.17
2018-06-05T11:47:54.179Z,8.80
2018-06-05T11:50:23.521Z,8.97
2018-06-05T11:52:52.879Z,9.23
2018-06-05T11:55:22.259Z,8.33
2018-06-05T11:57:51.610Z,8.03
2018-06-05T12:00:21.066Z,9.20
2018-06-05T12:02:50.860Z,8.27
2018-06-05T12:05:20.224Z,8.37
2018-06-05T12:07:49.617Z,8.20
2018-06-05T12:10:18.979Z,8.30
2018-06-05T12:12:48.377Z,8.00
2018-06-05T12:15:17.712Z,8.20
2018-06-05T12:17:47.105Z,8.00
2018-06-05T12:20:16.847Z,8.93
2018-06-05T12:22:46.635Z,8.97
2018-06-05T12:25:16.002Z,9.57
2018-06-05T12:27:45.428Z,8.83
2018-06-05T12:30:14.779Z,8.40
2018-06-05T12:32:44.609Z,9.30
2018-06-05T12:35:14.000Z,9.10
2018-06-05T12:37:43.443Z,9.03
2018-06-05T12:40:12.831Z,8.90
2018-06-05T12:42:42.268Z,8.20
2018-06-05T12:45:11.645Z,7.97
2018-06-05T12:47:41.015Z,9.40
2018-06-05T12:50:10.055Z,8.13
2018-06-05T12:52:39.324Z,7.90
2018-06-05T12:55:08.751Z,8.13
2018-06-05T12:57:38.156Z,7.60
2018-06-05T13:00:07.584Z,8.50
2018-06-05T13:02:36.939Z,7.20
2018-06-05T13:05:06.335Z,7.40
2018-06-05T13:07:35.708Z,7.70
2018-06-05T13:10:05.152Z,7.93
2018-06-05T13:12:35.012Z,7.20
2018-06-05T13:15:04.816Z,7.00
2018-06-05T13:17:34.259Z,6.93
2018-06-05T13:20:03.619Z,7.20
2018-06-05T13:22:33.007Z,7.33
2018-06-05T13:25:02.410Z,7.13
2018-06-05T13:27:32.677Z,7.63
2018-06-05T13:30:02.117Z,6.30
2018-06-05T13:32:31.482Z,7.43
2018-06-05T13:35:00.921Z,7.57
2018-06-05T13:37:30.295Z,7.03
2018-06-05T13:39:59.683Z,7.10
2018-06-05T13:42:29.069Z,7.03
2018-06-05T13:44:58.440Z,7.10
2018-06-05T13:47:27.423Z,7.57
2018-06-05T13:49:56.702Z,6.60
2018-06-05T13:52:26.109Z,6.30
2018-06-05T13:54:55.459Z,6.73
2018-06-05T13:57:24.803Z,6.47
2018-06-05T13:59:54.191Z,6.83
2018-06-05T14:02:23.487Z,6.67
2018-06-05T14:04:52.844Z,5.80
2018-06-05T14:07:22.231Z,6.57
2018-06-05T14:09:51.557Z,6.53
2018-06-05T14:12:20.928Z,5.77
2018-06-05T14:14:50.210Z,6.20
2018-06-05T14:17:19.540Z,5.57
2018-06-05T14:19:49.779Z,5.70
2018-06-05T14:22:19.110Z,5.60
2018-06-05T14:24:48.362Z,5.33
2018-06-05T14:27:17.723Z,4.90
2018-06-05T14:29:47.039Z,4.63
2018-06-05T14:32:16.458Z,5.03
2018-06-05T14:34:45.766Z,4.87
2018-06-05T14:37:15.181Z,4.57
2018-06-05T14:39:44.503Z,5.03
2018-06-05T14:42:13.837Z,5.70
2018-06-05T14:44:43.133Z,6.10
2018-06-05T14:47:12.480Z,6.00
2018-06-05T14:49:41.829Z,5.10
2018-06-05T14:52:11.220Z,5.30
2018-06-05T14:54:40.548Z,4.90
2018-06-05T14:57:09.911Z,5.20
2018-06-05T14:59:39.248Z,5.30
2018-06-05T15:02:08.584Z,4.57
2018-06-05T15:04:38.359Z,5.47
2018-06-05T15:07:08.022Z,5.10
2018-06-05T15:09:37.385Z,5.63
2018-06-05T15:12:06.360Z,5.10
2018-06-05T15:14:36.121Z,5.00
2018-06-05T15:17:05.488Z,4.97
2018-06-05T15:19:34.798Z,5.43
2018-06-05T15:22:04.340Z,5.43
2018-06-05T15:24:33.640Z,5.63
2018-06-05T15:27:02.967Z,5.80
2018-06-05T15:29:32.336Z,5.63
2018-06-05T15:32:01.698Z,5.70
2018-06-05T15:34:32.138Z,4.43
2018-06-05T15:37:02.236Z,4.23
2018-06-05T15:39:31.655Z,4.90
2018-06-05T15:42:01.031Z,5.30
2018-06-05T15:44:30.880Z,5.33
2018-06-05T15:47:00.322Z,4.87
2018-06-05T15:49:29.684Z,5.17
2018-06-05T15:51:59.489Z,4.97
2018-06-05T15:54:29.779Z,4.87
2018-06-05T15:56:59.099Z,4.97
2018-06-05T15:59:28.511Z,5.97
2018-06-05T16:01:57.884Z,5.63
2018-06-05T16:04:27.272Z,5.80
2018-06-05T16:06:56.647Z,5.33
2018-06-05T16:09:26.033Z,5.23
2018-06-05T16:11:55.560Z,6.00
2018-06-05T16:14:24.548Z,5.60
2018-06-05T16:16:53.840Z,5.10
2018-06-05T16:19:23.238Z,4.80
2018-06-05T16:21:52.595Z,4.67
2018-06-05T16:24:21.952Z,5.27
2018-06-05T16:26:51.340Z,4.30
2018-06-05T16:29:20.681Z,4.73
2018-06-05T16:31:50.073Z,5.43
2018-06-05T16:34:19.436Z,6.10
2018-06-05T16:36:48.821Z,5.67
2018-06-05T16:39:18.156Z,5.17
2018-06-05T16:41:47.584Z,4.87
2018-06-05T16:44:16.905Z,4.97
2018-06-05T16:46:46.271Z,5.33
2018-06-05T16:49:15.661Z,5.90
2018-06-05T16:51:45.056Z,6.10
2018-06-05T16:54:14.421Z,8.53
2018-06-05T16:56:44.083Z,9.53
2018-06-05T16:59:13.432Z,10.10
2018-06-05T17:01:42.760Z,9.10
2018-06-05T17:04:12.072Z,10.43
2018-06-05T17:06:41.590Z,10.37
2018-06-05T17:09:10.900Z,10.53
2018-06-05T17:11:40.227Z,11.77
2018-06-05T17:14:09.544Z,11.00
2018-06-05T17:16:38.896Z,11.23
2018-06-05T17:19:08.239Z,12.23
2018-06-05T17:21:37.619Z,13.27
2018-06-05T17:24:06.915Z,12.77
2018-06-05T17:26:36.276Z,13.23
2018-06-05T17:29:05.616Z,12.20
2018-06-05T17:31:34.981Z,14.40
2018-06-05T17:34:04.299Z,13.47
2018-06-05T17:36:34.029Z,13.50
2018-06-05T17:39:03.539Z,12.87
2018-06-05T17:41:32.900Z,12.60
2018-06-05T17:44:02.240Z,13.37
2018-06-05T17:46:31.581Z,13.23
2018-06-05T17:49:00.916Z,13.10
2018-06-05T17:51:30.295Z,13.07
2018-06-05T17:53:59.671Z,13.60
2018-06-05T17:56:29.479Z,13.53
2018-06-05T17:58:58.865Z,12.73
2018-06-05T18:01:29.016Z,12.30
2018-06-05T18:03:58.402Z,12.80
2018-06-05T18:06:27.679Z,11.53
2018-06-05T18:08:57.039Z,12.40
2018-06-05T18:11:26.534Z,12.83
2018-06-05T18:13:55.920Z,12.97
2018-06-05T18:16:25.285Z,11.87
2018-06-05T18:18:54.674Z,12.50
2018-06-05T18:21:24.058Z,14.07
2018-06-05T18:23:53.437Z,13.67
2018-06-05T18:26:22.776Z,12.60
2018-06-05T18:28:52.140Z,14.30
2018-06-05T18:31:22.177Z,13.50
2018-06-05T18:33:52.016Z,13.80
2018-06-05T18:36:21.507Z,13.80
2018-06-05T18:38:50.920Z,15.17
2018-06-05T18:41:20.289Z,18.10
2018-06-05T18:43:49.681Z,12.77
2018-06-05T18:46:19.172Z,14.67
2018-06-05T18:48:48.854Z,15.80
2018-06-05T18:51:18.537Z,14.17
2018-06-05T18:53:48.157Z,15.97
2018-06-05T18:56:17.758Z,13.90
2018-06-05T18:58:47.157Z,15.80
2018-06-05T19:01:16.684Z,16.80
2018-06-05T19:03:46.067Z,16.33
2018-06-05T19:06:15.455Z,15.00
2018-06-05T19:08:44.833Z,16.70
2018-06-05T19:11:14.444Z,16.70
2018-06-05T19:13:44.119Z,15.70
2018-06-05T19:16:13.642Z,20.07
2018-06-05T19:18:43.032Z,16.70
2018-06-05T19:21:12.726Z,19.67
2018-06-05T19:23:42.512Z,16.73
2018-06-05T19:26:12.291Z,18.40
2018-06-05T19:28:41.806Z,17.37
2018-06-05T19:31:11.804Z,15.50
2018-06-05T19:33:41.253Z,14.97
2018-06-05T19:36:10.851Z,18.13
2018-06-05T19:38:40.659Z,16.77
2018-06-05T19:41:10.333Z,15.97
2018-06-05T19:43:39.954Z,16.10
2018-06-05T19:46:09.452Z,16.67
2018-06-05T19:48:39.007Z,16.70
2018-06-05T19:51:08.679Z,15.13
2018-06-05T19:53:38.150Z,15.63
2018-06-05T19:56:07.942Z,13.90
2018-06-05T19:58:37.010Z,15.47
2018-06-05T20:01:06.561Z,15.10
2018-06-05T20:03:36.070Z,15.43
2018-06-05T20:06:05.589Z,18.50
2018-06-05T20:08:35.491Z,16.03
2018-06-05T20:11:04.916Z,13.67
2018-06-05T20:13:34.708Z,16.20
2018-06-05T20:16:04.328Z,15.80
2018-06-05T20:18:33.967Z,19.73
2018-06-05T20:21:03.458Z,15.70
2018-06-05T20:23:32.449Z,14.07
2018-06-05T20:26:01.760Z,14.93
2018-06-05T20:28:31.125Z,14.77
2018-06-05T20:31:00.970Z,13.70
2018-06-05T20:33:30.240Z,14.47
2018-06-05T20:35:59.595Z,15.73
2018-06-05T20:38:28.994Z,16.00
2018-06-05T20:40:58.354Z,14.77
2018-06-05T20:43:27.715Z,14.60
2018-06-05T20:45:57.065Z,13.73
2018-06-05T20:48:26.407Z,14.03
2018-06-05T20:50:56.236Z,15.63
2018-06-05T20:53:25.629Z,14.17
2018-06-05T20:55:54.979Z,14.03
2018-06-05T20:58:24.316Z,13.33
2018-06-05T21:00:53.766Z,14.83
2018-06-05T21:03:23.323Z,15.90
2018-06-05T21:05:52.707Z,13.80
2018-06-05T21:08:22.091Z,13.87
2018-06-05T21:10:51.472Z,13.97
2018-06-05T21:13:20.912Z,15.07
2018-06-05T21:15:50.328Z,16.10
2018-06-05T21:18:19.750Z,14.77
2018-06-05T21:20:49.121Z,14.40
2018-06-05T21:23:18.511Z,14.47
2018-06-05T21:25:47.887Z,13.30
2018-06-05T21:28:17.257Z,14.83
2018-06-05T21:30:46.634Z,13.80
2018-06-05T21:33:15.983Z,16.30
2018-06-05T21:35:45.374Z,14.27
2018-06-05T21:38:14.731Z,11.67
2018-06-05T21:40:44.131Z,13.00
2018-06-05T21:43:13.506Z,13.43
2018-06-05T21:45:42.899Z,13.93
2018-06-05T21:48:12.264Z,12.17
2018-06-05T21:50:41.669Z,13.37
2018-06-05T21:53:11.015Z,12.83
2018-06-05T21:55:40.395Z,14.53
2018-06-05T21:58:09.731Z,12.90
2018-06-05T22:00:39.468Z,12.93
2018-06-05T22:03:08.457Z,13.17
2018-06-05T22:05:37.738Z,14.13
2018-06-05T22:08:07.085Z,15.37
2018-06-05T22:10:36.469Z,13.70
2018-06-05T22:13:05.462Z,12.93
2018-06-05T22:15:34.752Z,15.47
2018-06-05T22:18:04.067Z,13.23
2018-06-05T22:20:33.619Z,13.77
2018-06-05T22:23:02.942Z,13.57
2018-06-05T22:25:32.311Z,13.40
2018-06-05T22:28:02.032Z,14.17
2018-06-05T22:30:31.395Z,14.67
2018-06-05T22:33:00.756Z,13.87
2018-06-05T22:35:29.760Z,14.20
2018-06-05T22:37:58.652Z,14.90
2018-06-05T22:40:27.514Z,15.17
2018-06-05T22:42:56.423Z,14.83
2018-06-05T22:45:25.673Z,13.70
2018-06-05T22:47:55.303Z,14.87
2018-06-05T22:50:24.694Z,17.37
2018-06-05T22:52:54.046Z,15.57
2018-06-05T22:55:23.392Z,16.33
2018-06-05T22:57:52.733Z,14.70
2018-06-05T23:00:31.811Z,16.27
2018-06-05T23:03:01.728Z,17.67
2018-06-05T23:05:31.107Z,17.30
2018-06-05T23:08:00.488Z,16.80
2018-06-05T23:10:29.872Z,17.30
2018-06-05T23:12:59.259Z,16.60
2018-06-05T23:15:28.649Z,17.30
2018-06-05T23:17:58.035Z,16.33
2018-06-05T23:20:27.389Z,18.07
2018-06-05T23:22:56.785Z,17.03
2018-06-05T23:25:26.177Z,17.90
2018-06-05T23:27:55.596Z,18.30
2018-06-05T23:30:24.612Z,18.93
2018-06-05T23:32:53.908Z,18.27
2018-06-05T23:35:23.288Z,19.90
2018-06-05T23:37:52.658Z,18.37
2018-06-05T23:40:22.019Z,18.53
2018-06-05T23:42:51.415Z,19.30
2018-06-05T23:45:20.808Z,19.60
2018-06-05T23:47:50.611Z,19.20
2018-06-05T23:50:19.613Z,21.20
2018-06-05T23:52:48.924Z,18.57
2018-06-05T23:55:18.300Z,18.80
2018-06-05T23:57:47.672Z,19.70
